createdAt,value
2023-02-14T00:00:56.869Z,91.25
2023-02-14T00:02:01.493Z,90.85
2023-02-14T00:03:16.944Z,91.17
2023-02-14T00:04:22.179Z,91.18
2023-02-14T00:05:26.307Z,91.44
2023-02-14T00:06:35.988Z,91.56
2023-02-14T00:07:39.888Z,91.85
2023-02-14T00:08:45.318Z,91.59
2023-02-14T00:09:49.634Z,91.29
2023-02-14T00:10:53.528Z,91.21
2023-02-14T00:11:58.085Z,90.96
2023-02-14T00:13:01.996Z,90.88
2023-02-14T00:14:29.882Z,91.03
2023-02-14T00:15:33.853Z,91.06
2023-02-14T00:16:38.561Z,91.05
2023-02-14T00:17:42.572Z,90.91
2023-02-14T00:19:04.178Z,90.92
2023-02-14T00:20:12.113Z,91.08
2023-02-14T00:21:15.899Z,90.78
2023-02-14T00:22:20.366Z,90.70
2023-02-14T00:23:24.140Z,90.58
2023-02-14T00:24:28.196Z,90.11
2023-02-14T00:25:34.792Z,90.40
2023-02-14T00:26:39.087Z,90.71
2023-02-14T00:27:43.038Z,90.63
2023-02-14T00:28:46.635Z,90.69
2023-02-14T00:29:50.921Z,90.34
2023-02-14T00:30:58.598Z,90.00
2023-02-14T00:32:03.520Z,90.37
2023-02-14T00:33:14.732Z,89.81
2023-02-14T00:34:19.976Z,90.20
2023-02-14T00:35:24.200Z,89.93
2023-02-14T00:36:28.266Z,89.72
2023-02-14T00:37:32.211Z,89.80
2023-02-14T00:38:36.828Z,89.85
2023-02-14T00:39:40.724Z,90.05
2023-02-14T00:40:44.628Z,89.72
2023-02-14T00:41:48.661Z,89.95
2023-02-14T00:42:52.621Z,89.72
2023-02-14T00:43:56.455Z,89.59
2023-02-14T00:45:00.718Z,89.83
2023-02-14T00:46:05.359Z,90.13
2023-02-14T00:47:09.545Z,89.88
2023-02-14T00:48:14.258Z,89.65
2023-02-14T00:49:18.283Z,89.42
2023-02-14T00:50:21.926Z,89.62
2023-02-14T00:51:28.827Z,89.59
2023-02-14T00:52:33.158Z,90.20
2023-02-14T00:53:37.796Z,89.79
2023-02-14T00:54:41.461Z,89.49
2023-02-14T00:55:47.451Z,89.32
2023-02-14T00:56:51.563Z,88.51
2023-02-14T00:57:55.283Z,88.51
2023-02-14T00:58:58.987Z,87.91
2023-02-14T01:00:03.561Z,87.57
2023-02-14T01:01:15.726Z,86.23
2023-02-14T01:02:19.668Z,86.66
2023-02-14T01:03:24.253Z,86.22
2023-02-14T01:04:28.216Z,86.04
2023-02-14T01:05:32.054Z,86.09
2023-02-14T01:06:35.922Z,86.31
2023-02-14T01:07:40.162Z,86.41
2023-02-14T01:08:44.699Z,86.29
2023-02-14T01:09:48.915Z,86.81
2023-02-14T01:10:53.401Z,86.75
2023-02-14T01:11:57.749Z,87.04
2023-02-14T01:13:01.889Z,87.08
2023-02-14T01:14:10.882Z,87.07
2023-02-14T01:15:15.512Z,86.89
2023-02-14T01:16:23.363Z,87.17
2023-02-14T01:17:28.117Z,87.02
2023-02-14T01:18:32.794Z,87.26
2023-02-14T01:19:36.836Z,87.46
2023-02-14T01:20:41.552Z,87.58
2023-02-14T01:21:46.505Z,88.31
2023-02-14T01:22:52.036Z,88.22
2023-02-14T01:23:59.691Z,88.52
2023-02-14T01:25:12.360Z,88.59
2023-02-14T01:26:17.456Z,88.92
2023-02-14T01:27:21.642Z,89.03
2023-02-14T01:28:25.620Z,88.81
2023-02-14T01:29:29.511Z,88.38
2023-02-14T01:30:33.812Z,88.45
2023-02-14T01:31:38.428Z,88.97
2023-02-14T01:32:42.540Z,88.61
2023-02-14T01:33:49.344Z,88.67
2023-02-14T01:34:53.465Z,89.24
2023-02-14T01:35:58.539Z,89.34
2023-02-14T01:37:02.377Z,89.68
2023-02-14T01:38:09.421Z,89.53
2023-02-14T01:39:15.459Z,89.49
2023-02-14T01:40:19.537Z,89.69
2023-02-14T01:41:25.338Z,89.24
2023-02-14T01:42:29.698Z,89.35
2023-02-14T01:44:03.093Z,89.03
2023-02-14T01:45:20.260Z,89.01
2023-02-14T01:46:38.031Z,89.64
2023-02-14T01:47:46.912Z,90.06
2023-02-14T01:48:55.733Z,89.99
2023-02-14T01:50:17.874Z,90.40
2023-02-14T01:51:22.741Z,90.66
2023-02-14T01:52:37.722Z,90.32
2023-02-14T01:53:41.873Z,90.80
2023-02-14T01:55:10.277Z,90.98
2023-02-14T01:56:24.364Z,90.81
2023-02-14T01:57:41.151Z,90.74
2023-02-14T01:58:51.256Z,90.20
2023-02-14T02:00:19.831Z,90.46
2023-02-14T02:01:24.748Z,90.65
2023-02-14T02:02:28.445Z,90.50
2023-02-14T02:03:46.085Z,90.58
2023-02-14T02:04:56.140Z,90.28
2023-02-14T02:06:35.952Z,90.06
2023-02-14T02:07:40.978Z,90.67
2023-02-14T02:09:25.645Z,90.05
2023-02-14T02:10:30.282Z,90.66
2023-02-14T02:11:38.093Z,90.91
2023-02-14T02:12:54.346Z,90.93
2023-02-14T02:14:00.993Z,90.57
2023-02-14T02:15:17.140Z,90.22
2023-02-14T02:16:52.696Z,90.17
2023-02-14T02:18:18.220Z,90.45
2023-02-14T02:19:36.520Z,90.59
2023-02-14T02:20:43.232Z,90.78
2023-02-14T02:22:24.348Z,90.45
2023-02-14T02:23:39.616Z,90.50
2023-02-14T02:25:16.008Z,91.09
2023-02-14T02:27:06.046Z,90.41
2023-02-14T02:28:44.721Z,90.74
2023-02-14T02:30:45.657Z,90.66
2023-02-14T02:32:52.929Z,90.19
2023-02-14T02:34:47.327Z,90.54
2023-02-14T02:36:06.263Z,90.36
2023-02-14T02:37:51.793Z,90.15
2023-02-14T02:39:25.646Z,90.35
2023-02-14T02:40:54.940Z,89.88
2023-02-14T02:42:25.271Z,90.02
2023-02-14T02:43:48.028Z,90.16
2023-02-14T02:45:34.634Z,90.31
2023-02-14T02:46:49.999Z,90.36
2023-02-14T02:48:09.170Z,90.60
2023-02-14T02:50:14.897Z,90.49
2023-02-14T02:52:02.013Z,89.87
2023-02-14T02:53:19.958Z,89.92
2023-02-14T02:54:52.810Z,89.74
2023-02-14T02:56:34.376Z,89.94
2023-02-14T02:57:43.400Z,89.92
2023-02-14T02:59:02.933Z,90.32
2023-02-14T03:00:22.408Z,89.70
2023-02-14T03:01:41.553Z,90.08
2023-02-14T03:03:12.010Z,89.79
2023-02-14T03:04:56.255Z,89.66
2023-02-14T03:06:00.869Z,89.42
2023-02-14T03:07:25.806Z,89.41
2023-02-14T03:08:29.588Z,89.80
2023-02-14T03:09:33.711Z,89.62
2023-02-14T03:10:39.693Z,89.78
2023-02-14T03:12:03.095Z,89.92
2023-02-14T03:13:59.771Z,89.70
2023-02-14T03:15:18.627Z,89.53
2023-02-14T03:16:54.618Z,89.27
2023-02-14T03:18:40.793Z,89.42
2023-02-14T03:20:28.483Z,89.45
2023-02-14T03:21:56.836Z,89.53
2023-02-14T03:23:32.788Z,89.26
2023-02-14T03:24:45.040Z,89.24
2023-02-14T03:26:01.248Z,89.39
2023-02-14T03:27:10.962Z,89.14
2023-02-14T03:28:31.289Z,89.44
2023-02-14T03:30:11.506Z,90.03
2023-02-14T03:31:52.717Z,89.74
2023-02-14T03:33:15.081Z,90.03
2023-02-14T03:34:50.288Z,90.02
2023-02-14T03:36:12.959Z,89.77
2023-02-14T03:38:20.393Z,90.21
2023-02-14T03:39:53.638Z,89.96
2023-02-14T03:41:12.990Z,89.88
2023-02-14T03:42:41.874Z,89.32
2023-02-14T03:43:55.140Z,89.54
2023-02-14T03:45:01.409Z,89.39
2023-02-14T03:46:21.355Z,89.40
2023-02-14T03:47:33.397Z,89.44
2023-02-14T03:48:40.833Z,89.38
2023-02-14T03:50:11.422Z,88.98
2023-02-14T03:51:18.900Z,89.09
2023-02-14T03:52:27.226Z,89.27
2023-02-14T03:53:37.237Z,89.29
2023-02-14T03:54:43.368Z,89.12
2023-02-14T03:56:15.109Z,89.25
2023-02-14T03:57:24.217Z,89.36
2023-02-14T03:58:37.815Z,89.25
2023-02-14T03:59:42.644Z,89.27
2023-02-14T04:00:51.706Z,89.19
2023-02-14T04:02:36.888Z,89.49
2023-02-14T04:03:43.712Z,89.66
2023-02-14T04:04:52.799Z,90.27
2023-02-14T04:05:56.971Z,90.66
2023-02-14T04:07:10.245Z,90.09
2023-02-14T04:08:23.914Z,90.75
2023-02-14T04:09:28.042Z,90.57
2023-02-14T04:10:32.795Z,90.66
2023-02-14T04:11:38.895Z,91.33
2023-02-14T04:12:43.244Z,91.19
2023-02-14T04:13:47.546Z,90.92
2023-02-14T04:14:51.674Z,90.61
2023-02-14T04:15:55.744Z,90.29
2023-02-14T04:17:18.415Z,90.17
2023-02-14T04:18:41.071Z,90.01
2023-02-14T04:19:44.972Z,90.41
2023-02-14T04:20:48.771Z,90.54
2023-02-14T04:21:53.323Z,90.42
2023-02-14T04:22:57.981Z,90.78
2023-02-14T04:24:01.944Z,90.56
2023-02-14T04:25:11.158Z,90.50
2023-02-14T04:26:15.418Z,90.71
2023-02-14T04:27:19.639Z,90.28
2023-02-14T04:28:23.396Z,90.31
2023-02-14T04:29:27.552Z,89.98
2023-02-14T04:30:31.439Z,90.10
2023-02-14T04:31:35.220Z,89.80
2023-02-14T04:32:40.259Z,89.82
2023-02-14T04:33:46.212Z,89.90
2023-02-14T04:34:50.414Z,89.72
2023-02-14T04:35:54.320Z,89.87
2023-02-14T04:36:58.283Z,89.75
2023-02-14T04:38:03.616Z,89.84
2023-02-14T04:39:10.902Z,89.86
2023-02-14T04:40:17.702Z,89.98
2023-02-14T04:41:21.373Z,89.83
2023-02-14T04:42:25.486Z,89.94
2023-02-14T04:43:29.526Z,90.26
2023-02-14T04:44:34.311Z,89.99
2023-02-14T04:45:40.937Z,89.76
2023-02-14T04:46:45.222Z,89.94
2023-02-14T04:47:52.452Z,90.13
2023-02-14T04:48:56.212Z,90.01
2023-02-14T04:49:59.997Z,89.94
2023-02-14T04:51:05.873Z,90.21
2023-02-14T04:52:13.383Z,90.55
2023-02-14T04:53:19.442Z,90.44
2023-02-14T04:54:23.498Z,90.66
2023-02-14T04:55:27.464Z,90.53
2023-02-14T04:56:31.162Z,90.55
2023-02-14T04:57:35.716Z,90.16
2023-02-14T04:58:39.410Z,90.25
2023-02-14T04:59:43.799Z,90.34
2023-02-14T05:00:51.006Z,90.03
2023-02-14T05:01:55.177Z,90.51
2023-02-14T05:02:59.208Z,90.32
2023-02-14T05:04:03.411Z,90.23
2023-02-14T05:05:11.811Z,90.58
2023-02-14T05:06:15.864Z,90.47
2023-02-14T05:07:19.665Z,90.10
2023-02-14T05:08:23.557Z,90.34
2023-02-14T05:09:27.508Z,90.13
2023-02-14T05:10:31.220Z,90.18
2023-02-14T05:11:34.867Z,89.84
2023-02-14T05:12:38.464Z,89.90
2023-02-14T05:13:42.190Z,89.74
2023-02-14T05:14:46.184Z,89.68
2023-02-14T05:15:49.978Z,89.41
2023-02-14T05:16:53.785Z,89.65
2023-02-14T05:18:01.773Z,89.74
2023-02-14T05:19:06.410Z,89.81
2023-02-14T05:20:11.554Z,89.95
2023-02-14T05:21:15.754Z,89.54
2023-02-14T05:22:20.006Z,89.94
2023-02-14T05:23:24.450Z,89.91
2023-02-14T05:24:28.400Z,89.88
2023-02-14T05:25:32.639Z,90.02
2023-02-14T05:26:36.613Z,90.11
2023-02-14T05:27:40.443Z,89.95
2023-02-14T05:28:44.561Z,90.08
2023-02-14T05:29:48.604Z,90.02
2023-02-14T05:30:52.885Z,89.91
2023-02-14T05:31:56.847Z,89.88
2023-02-14T05:33:01.473Z,89.84
2023-02-14T05:34:13.006Z,90.06
2023-02-14T05:35:16.933Z,89.85
2023-02-14T05:36:21.213Z,90.14
2023-02-14T05:37:24.943Z,90.08
2023-02-14T05:38:30.304Z,90.22
2023-02-14T05:39:34.134Z,90.17
2023-02-14T05:40:37.751Z,90.32
2023-02-14T05:41:41.833Z,90.63
2023-02-14T05:42:46.053Z,90.59
2023-02-14T05:43:49.935Z,90.10
2023-02-14T05:44:53.943Z,90.02
2023-02-14T05:45:58.536Z,90.43
2023-02-14T05:47:02.513Z,90.52
2023-02-14T05:48:09.138Z,90.90
2023-02-14T05:49:13.440Z,90.63
2023-02-14T05:50:19.516Z,90.33
2023-02-14T05:51:23.163Z,90.47
2023-02-14T05:52:27.600Z,90.49
2023-02-14T05:53:31.495Z,90.97
2023-02-14T05:54:35.477Z,90.91
2023-02-14T05:55:39.427Z,90.70
2023-02-14T05:56:43.161Z,91.41
2023-02-14T05:57:47.631Z,91.02
2023-02-14T05:58:51.542Z,90.97
2023-02-14T05:59:58.470Z,91.05
2023-02-14T06:01:03.078Z,90.62
2023-02-14T06:02:10.407Z,90.83
2023-02-14T06:03:14.783Z,90.86
2023-02-14T06:04:18.426Z,90.97
2023-02-14T06:05:22.787Z,90.68
2023-02-14T06:06:26.536Z,90.91
2023-02-14T06:07:30.630Z,90.95
2023-02-14T06:08:34.501Z,91.19
2023-02-14T06:09:38.480Z,91.10
2023-02-14T06:10:42.447Z,90.82
2023-02-14T06:11:46.547Z,91.12
2023-02-14T06:12:53.522Z,91.02
2023-02-14T06:13:57.301Z,90.92
2023-02-14T06:15:00.880Z,90.93
2023-02-14T06:16:08.548Z,90.57
2023-02-14T06:17:12.674Z,90.77
2023-02-14T06:18:16.667Z,90.82
2023-02-14T06:19:20.979Z,91.04
2023-02-14T06:20:25.666Z,90.99
2023-02-14T06:21:30.242Z,90.72
2023-02-14T06:22:34.106Z,91.03
2023-02-14T06:23:37.854Z,91.03
2023-02-14T06:24:41.655Z,91.28
2023-02-14T06:25:45.561Z,91.36
2023-02-14T06:26:49.786Z,91.49
2023-02-14T06:27:57.924Z,91.22
2023-02-14T06:29:03.054Z,90.96
2023-02-14T06:30:18.918Z,90.97
2023-02-14T06:31:23.446Z,90.86
2023-02-14T06:32:27.724Z,90.98
2023-02-14T06:33:32.683Z,90.72
2023-02-14T06:34:36.786Z,90.81
2023-02-14T06:35:41.029Z,90.57
2023-02-14T06:36:45.319Z,90.61
2023-02-14T06:37:49.846Z,90.69
2023-02-14T06:38:53.774Z,90.51
2023-02-14T06:39:57.787Z,90.51
2023-02-14T06:41:12.766Z,90.65
2023-02-14T06:42:17.449Z,90.69
2023-02-14T06:43:21.878Z,90.94
2023-02-14T06:44:25.954Z,91.02
2023-02-14T06:45:29.868Z,90.93
2023-02-14T06:46:33.472Z,90.96
2023-02-14T06:47:38.020Z,90.67
2023-02-14T06:48:42.270Z,90.71
2023-02-14T06:49:46.113Z,90.82
2023-02-14T06:50:50.162Z,90.66
2023-02-14T06:51:54.585Z,90.94
2023-02-14T06:52:58.306Z,90.61
2023-02-14T06:54:02.533Z,90.88
2023-02-14T06:55:12.009Z,90.70
2023-02-14T06:56:16.201Z,90.89
2023-02-14T06:57:20.112Z,90.67
2023-02-14T06:58:24.327Z,90.69
2023-02-14T06:59:28.456Z,90.08
2023-02-14T07:00:32.682Z,90.61
2023-02-14T07:01:37.056Z,90.87
2023-02-14T07:02:41.130Z,91.14
2023-02-14T07:03:44.843Z,90.88
2023-02-14T07:04:48.727Z,90.91
2023-02-14T07:05:53.687Z,90.98
2023-02-14T07:06:58.522Z,90.75
2023-02-14T07:08:02.708Z,90.79
2023-02-14T07:09:17.861Z,90.89
2023-02-14T07:10:21.437Z,91.03
2023-02-14T07:11:25.134Z,90.64
2023-02-14T07:12:28.895Z,90.80
2023-02-14T07:13:32.513Z,90.50
2023-02-14T07:14:36.189Z,90.46
2023-02-14T07:15:40.104Z,90.64
2023-02-14T07:16:44.027Z,90.79
2023-02-14T07:17:48.332Z,90.37
2023-02-14T07:18:52.167Z,90.27
2023-02-14T07:19:55.885Z,90.15
2023-02-14T07:20:59.872Z,90.13
2023-02-14T07:22:03.684Z,90.30
2023-02-14T07:23:11.591Z,90.25
2023-02-14T07:24:16.036Z,90.21
2023-02-14T07:25:20.011Z,90.10
2023-02-14T07:26:24.443Z,90.10
2023-02-14T07:27:28.312Z,90.00
2023-02-14T07:28:34.116Z,90.13
2023-02-14T07:29:38.291Z,90.32
2023-02-14T07:30:42.073Z,90.11
2023-02-14T07:31:46.541Z,89.83
2023-02-14T07:32:50.649Z,89.82
2023-02-14T07:33:54.886Z,89.64
2023-02-14T07:34:58.565Z,89.43
2023-02-14T07:36:09.225Z,89.53
2023-02-14T07:37:13.442Z,89.55
2023-02-14T07:38:17.275Z,89.54
2023-02-14T07:39:21.580Z,89.05
2023-02-14T07:40:25.389Z,88.97
2023-02-14T07:41:29.050Z,89.07
2023-02-14T07:42:33.214Z,88.99
2023-02-14T07:43:37.166Z,89.36
2023-02-14T07:44:40.875Z,88.82
2023-02-14T07:45:44.595Z,88.72
2023-02-14T07:46:48.703Z,88.85
2023-02-14T07:47:55.304Z,88.88
2023-02-14T07:48:59.134Z,88.77
2023-02-14T07:50:05.352Z,88.53
2023-02-14T07:51:12.144Z,88.62
2023-02-14T07:52:16.185Z,88.30
2023-02-14T07:53:20.125Z,88.15
2023-02-14T07:54:23.891Z,87.91
2023-02-14T07:55:28.131Z,87.57
2023-02-14T07:56:34.878Z,87.62
2023-02-14T07:57:38.627Z,87.70
2023-02-14T07:58:43.207Z,87.79
2023-02-14T07:59:47.220Z,87.73
2023-02-14T08:00:51.521Z,87.31
2023-02-14T08:01:55.376Z,87.81
2023-02-14T08:02:59.105Z,87.42
2023-02-14T08:04:02.867Z,87.26
2023-02-14T08:05:16.089Z,87.70
2023-02-14T08:06:20.903Z,87.72
2023-02-14T08:07:24.682Z,87.74
2023-02-14T08:08:31.475Z,87.67
2023-02-14T08:09:36.277Z,87.29
2023-02-14T08:10:40.688Z,87.00
2023-02-14T08:12:03.260Z,87.29
2023-02-14T08:13:12.162Z,87.00
2023-02-14T08:14:16.301Z,86.89
2023-02-14T08:15:38.874Z,86.92
2023-02-14T08:16:42.747Z,87.29
2023-02-14T08:17:46.997Z,86.95
2023-02-14T08:18:50.873Z,87.02
2023-02-14T08:19:54.669Z,87.15
2023-02-14T08:20:58.671Z,86.92
2023-02-14T08:22:04.356Z,87.08
2023-02-14T08:23:12.188Z,86.82
2023-02-14T08:24:16.303Z,87.04
2023-02-14T08:25:21.603Z,86.87
2023-02-14T08:26:25.607Z,86.55
2023-02-14T08:27:29.667Z,86.27
2023-02-14T08:28:33.844Z,85.99
2023-02-14T08:29:37.721Z,86.05
2023-02-14T08:30:43.457Z,85.83
2023-02-14T08:31:48.893Z,85.91
2023-02-14T08:32:53.837Z,85.75
2023-02-14T08:33:57.989Z,85.11
2023-02-14T08:35:01.890Z,85.22
2023-02-14T08:36:06.243Z,84.81
2023-02-14T08:37:11.935Z,85.10
2023-02-14T08:38:16.105Z,85.03
2023-02-14T08:39:24.420Z,84.99
2023-02-14T08:40:28.785Z,84.55
2023-02-14T08:41:37.078Z,84.69
2023-02-14T08:42:41.017Z,84.61
2023-02-14T08:43:46.429Z,84.71
2023-02-14T08:44:50.409Z,84.78
2023-02-14T08:45:55.112Z,84.28
2023-02-14T08:46:59.067Z,84.78
2023-02-14T08:48:14.325Z,84.48
2023-02-14T08:49:18.545Z,83.82
2023-02-14T08:50:22.967Z,83.94
2023-02-14T08:51:29.532Z,83.77
2023-02-14T08:52:36.031Z,83.63
2023-02-14T08:53:40.907Z,83.87
2023-02-14T08:54:46.969Z,83.90
2023-02-14T08:55:51.027Z,83.61
2023-02-14T08:56:54.709Z,83.51
2023-02-14T08:58:00.654Z,83.58
2023-02-14T08:59:07.098Z,83.48
2023-02-14T09:00:12.060Z,83.85
2023-02-14T09:01:18.258Z,83.56
2023-02-14T09:02:22.424Z,83.64
2023-02-14T09:03:26.368Z,83.78
2023-02-14T09:04:30.678Z,84.07
2023-02-14T09:05:35.321Z,84.33
2023-02-14T09:06:40.256Z,84.38
2023-02-14T09:07:44.013Z,84.26
2023-02-14T09:08:48.309Z,84.31
2023-02-14T09:09:52.385Z,83.98
2023-02-14T09:10:56.013Z,83.69
2023-02-14T09:12:04.567Z,84.25
2023-02-14T09:13:11.502Z,83.95
2023-02-14T09:14:21.222Z,83.92
2023-02-14T09:15:25.019Z,83.40
2023-02-14T09:16:28.860Z,83.15
2023-02-14T09:17:32.884Z,83.76
2023-02-14T09:18:37.603Z,83.79
2023-02-14T09:19:49.495Z,83.91
2023-02-14T09:20:53.863Z,84.02
2023-02-14T09:21:57.984Z,83.64
2023-02-14T09:23:01.945Z,83.75
2023-02-14T09:24:08.413Z,83.64
2023-02-14T09:25:12.914Z,83.71
2023-02-14T09:26:18.610Z,83.67
2023-02-14T09:27:22.337Z,83.66
2023-02-14T09:28:26.532Z,83.71
2023-02-14T09:29:32.387Z,83.77
2023-02-14T09:30:36.370Z,83.73
2023-02-14T09:31:40.430Z,83.35
2023-02-14T09:32:44.582Z,83.47
2023-02-14T09:33:50.305Z,83.89
2023-02-14T09:35:13.487Z,83.24
2023-02-14T09:36:20.344Z,83.17
2023-02-14T09:37:43.183Z,83.29
2023-02-14T09:38:47.816Z,83.06
2023-02-14T09:39:51.960Z,82.82
2023-02-14T09:40:56.445Z,82.85
2023-02-14T09:42:34.129Z,82.47
2023-02-14T09:43:53.321Z,82.48
2023-02-14T09:45:26.676Z,82.50
2023-02-14T09:46:40.381Z,82.54
2023-02-14T09:47:51.230Z,82.52
2023-02-14T09:48:59.957Z,83.04
2023-02-14T09:50:32.366Z,82.62
2023-02-14T09:51:45.849Z,82.68
2023-02-14T09:52:59.412Z,82.33
2023-02-14T09:54:28.994Z,82.10
2023-02-14T09:56:13.828Z,82.25
2023-02-14T09:57:57.892Z,81.97
2023-02-14T09:59:21.967Z,81.96
2023-02-14T10:00:34.244Z,82.20
2023-02-14T10:01:57.481Z,82.21
2023-02-14T10:03:20.816Z,81.65
2023-02-14T10:05:03.398Z,81.23
2023-02-14T10:06:23.455Z,80.69
2023-02-14T10:08:26.378Z,80.68
2023-02-14T10:10:01.805Z,80.72
2023-02-14T10:11:18.162Z,80.55
2023-02-14T10:13:02.068Z,80.02
2023-02-14T10:14:16.662Z,80.79
2023-02-14T10:15:28.285Z,80.11
2023-02-14T10:16:46.886Z,79.66
2023-02-14T10:18:06.130Z,79.48
2023-02-14T10:19:31.988Z,79.32
2023-02-14T10:20:53.310Z,79.28
2023-02-14T10:22:16.643Z,79.37
2023-02-14T10:23:45.734Z,79.11
2023-02-14T10:25:11.997Z,78.58
2023-02-14T10:26:38.275Z,78.42
2023-02-14T10:27:51.441Z,78.80
2023-02-14T10:28:56.577Z,78.34
2023-02-14T10:30:27.764Z,78.65
2023-02-14T10:31:56.766Z,78.67
2023-02-14T10:33:22.877Z,78.30
2023-02-14T10:34:49.741Z,78.18
2023-02-14T10:36:10.082Z,78.31
2023-02-14T10:37:43.921Z,78.74
2023-02-14T10:39:09.706Z,78.28
2023-02-14T10:40:41.155Z,78.38
2023-02-14T10:42:14.575Z,78.27
2023-02-14T10:43:38.516Z,78.71
2023-02-14T10:45:23.963Z,77.83
2023-02-14T10:47:07.717Z,78.19
2023-02-14T10:48:37.151Z,77.98
2023-02-14T10:50:21.815Z,78.00
2023-02-14T10:51:36.869Z,77.80
2023-02-14T10:53:23.565Z,78.37
2023-02-14T10:54:41.702Z,78.31
2023-02-14T10:55:59.405Z,78.44
2023-02-14T10:57:19.042Z,78.28
2023-02-14T10:58:28.537Z,78.33
2023-02-14T10:59:48.819Z,78.30
2023-02-14T11:01:18.481Z,78.13
2023-02-14T11:02:32.187Z,78.42
2023-02-14T11:04:03.714Z,78.40
2023-02-14T11:06:01.726Z,78.42
2023-02-14T11:07:16.772Z,77.88
2023-02-14T11:08:34.174Z,77.99
2023-02-14T11:09:38.060Z,78.10
2023-02-14T11:10:42.919Z,77.83
2023-02-14T11:11:59.186Z,77.71
2023-02-14T11:13:02.789Z,77.52
2023-02-14T11:14:25.153Z,77.03
2023-02-14T11:15:39.254Z,77.59
2023-02-14T11:16:43.062Z,77.14
2023-02-14T11:18:14.912Z,77.23
2023-02-14T11:19:27.370Z,77.35
2023-02-14T11:20:31.582Z,77.31
2023-02-14T11:21:45.088Z,77.70
2023-02-14T11:22:50.193Z,77.27
2023-02-14T11:23:54.216Z,77.16
2023-02-14T11:25:35.721Z,77.47
2023-02-14T11:26:45.612Z,77.39
2023-02-14T11:28:08.741Z,77.05
2023-02-14T11:29:22.104Z,76.86
2023-02-14T11:30:37.224Z,76.95
2023-02-14T11:31:43.338Z,76.49
2023-02-14T11:32:56.558Z,76.63
2023-02-14T11:34:05.011Z,76.45
2023-02-14T11:35:29.075Z,76.31
2023-02-14T11:36:42.043Z,76.75
2023-02-14T11:37:55.637Z,76.65
2023-02-14T11:39:32.114Z,76.57
2023-02-14T11:40:42.636Z,76.41
2023-02-14T11:41:59.943Z,76.45
2023-02-14T11:43:30.185Z,77.84
2023-02-14T11:44:37.380Z,79.63
2023-02-14T11:45:46.184Z,78.18
2023-02-14T11:47:02.976Z,79.01
2023-02-14T11:48:37.315Z,78.73
2023-02-14T11:50:23.527Z,79.22
2023-02-14T11:51:45.878Z,77.73
2023-02-14T11:52:56.885Z,77.10
2023-02-14T11:54:08.727Z,77.45
2023-02-14T11:55:33.645Z,75.96
2023-02-14T11:57:01.605Z,76.44
2023-02-14T11:58:09.246Z,76.86
2023-02-14T11:59:27.356Z,76.15
2023-02-14T12:00:32.848Z,75.19
2023-02-14T12:01:41.517Z,74.68
2023-02-14T12:02:50.944Z,74.81
2023-02-14T12:04:03.567Z,74.89
2023-02-14T12:05:31.099Z,73.71
2023-02-14T12:06:36.768Z,74.02
2023-02-14T12:07:46.356Z,73.80
2023-02-14T12:08:50.251Z,74.02
2023-02-14T12:10:18.251Z,72.97
2023-02-14T12:11:24.640Z,73.33
2023-02-14T12:12:29.208Z,73.32
2023-02-14T12:13:33.573Z,73.58
2023-02-14T12:14:39.813Z,73.56
2023-02-14T12:15:45.604Z,73.55
2023-02-14T12:17:34.378Z,73.71
2023-02-14T12:18:51.517Z,73.99
2023-02-14T12:20:19.690Z,73.96
2023-02-14T12:21:50.083Z,73.80
2023-02-14T12:23:14.484Z,73.61
2023-02-14T12:24:38.352Z,73.78
2023-02-14T12:26:11.746Z,74.07
2023-02-14T12:27:27.353Z,73.95
2023-02-14T12:28:50.309Z,74.86
2023-02-14T12:30:23.784Z,74.31
2023-02-14T12:31:28.547Z,74.07
2023-02-14T12:32:33.791Z,74.48
2023-02-14T12:33:40.249Z,74.70
2023-02-14T12:34:44.628Z,74.52
2023-02-14T12:36:16.524Z,74.33
2023-02-14T12:37:36.430Z,73.86
2023-02-14T12:39:01.335Z,73.90
2023-02-14T12:40:50.184Z,74.58
2023-02-14T12:42:06.120Z,74.35
2023-02-14T12:43:19.892Z,73.78
2023-02-14T12:44:51.239Z,73.68
2023-02-14T12:45:56.191Z,73.81
2023-02-14T12:47:34.539Z,73.64
2023-02-14T12:49:20.651Z,74.56
2023-02-14T12:50:33.970Z,73.83
2023-02-14T12:52:14.810Z,74.08
2023-02-14T12:53:28.433Z,74.34
2023-02-14T12:54:50.656Z,73.62
2023-02-14T12:56:26.836Z,74.03
2023-02-14T12:57:42.606Z,74.18
2023-02-14T12:59:00.334Z,74.19
2023-02-14T13:00:56.643Z,73.96
2023-02-14T13:02:25.556Z,74.01
2023-02-14T13:03:59.920Z,74.16
2023-02-14T13:05:31.144Z,74.24
2023-02-14T13:06:48.272Z,74.49
2023-02-14T13:08:44.997Z,74.61
2023-02-14T13:10:47.032Z,74.34
2023-02-14T13:12:37.302Z,74.41
2023-02-14T13:14:05.256Z,74.75
2023-02-14T13:15:51.644Z,74.63
2023-02-14T13:17:16.946Z,74.59
2023-02-14T13:18:49.832Z,74.37
2023-02-14T13:20:05.615Z,74.66
2023-02-14T13:21:15.448Z,74.64
2023-02-14T13:22:24.178Z,74.84
2023-02-14T13:23:55.283Z,74.82
2023-02-14T13:25:10.494Z,75.04
2023-02-14T13:26:31.263Z,74.81
2023-02-14T13:27:40.429Z,74.74
2023-02-14T13:29:02.055Z,74.68
2023-02-14T13:30:35.204Z,74.59
2023-02-14T13:31:48.806Z,74.04
2023-02-14T13:32:59.212Z,74.18
2023-02-14T13:34:15.991Z,74.14
2023-02-14T13:35:24.904Z,73.97
2023-02-14T13:36:37.726Z,74.18
2023-02-14T13:37:55.323Z,73.64
2023-02-14T13:39:04.200Z,74.00
2023-02-14T13:40:21.759Z,73.88
2023-02-14T13:41:28.434Z,73.51
2023-02-14T13:42:57.237Z,73.80
2023-02-14T13:44:03.795Z,73.68
2023-02-14T13:45:35.234Z,73.78
2023-02-14T13:46:39.157Z,73.74
2023-02-14T13:47:42.916Z,74.01
2023-02-14T13:49:20.242Z,74.60
2023-02-14T13:50:24.602Z,74.44
2023-02-14T13:51:57.081Z,74.05
2023-02-14T13:53:01.466Z,74.16
2023-02-14T13:54:49.136Z,74.08
2023-02-14T13:55:55.994Z,74.23
2023-02-14T13:57:23.640Z,74.10
2023-02-14T13:58:27.797Z,73.96
2023-02-14T13:59:36.395Z,74.15
2023-02-14T14:00:47.103Z,73.56
2023-02-14T14:01:51.496Z,73.63
2023-02-14T14:02:57.354Z,73.39
2023-02-14T14:04:07.393Z,73.50
2023-02-14T14:05:30.063Z,73.72
2023-02-14T14:07:01.424Z,73.59
2023-02-14T14:08:25.574Z,73.75
2023-02-14T14:09:44.104Z,73.66
2023-02-14T14:10:59.616Z,73.54
2023-02-14T14:12:27.610Z,73.66
2023-02-14T14:13:43.095Z,73.32
2023-02-14T14:15:15.497Z,73.08
2023-02-14T14:16:28.442Z,73.03
2023-02-14T14:18:14.216Z,73.11
2023-02-14T14:19:18.446Z,73.35
2023-02-14T14:20:23.701Z,73.16
2023-02-14T14:21:46.412Z,73.21
2023-02-14T14:22:54.254Z,73.38
2023-02-14T14:24:32.215Z,73.41
2023-02-14T14:25:43.694Z,73.54
2023-02-14T14:27:16.383Z,73.75
2023-02-14T14:28:25.638Z,73.80
2023-02-14T14:29:45.110Z,73.81
2023-02-14T14:30:49.732Z,74.14
2023-02-14T14:31:56.313Z,73.68
2023-02-14T14:33:25.988Z,73.49
2023-02-14T14:34:29.839Z,73.93
2023-02-14T14:35:33.602Z,73.57
2023-02-14T14:36:49.956Z,73.31
2023-02-14T14:38:02.116Z,73.65
2023-02-14T14:39:05.994Z,73.59
2023-02-14T14:40:28.910Z,73.74
2023-02-14T14:41:33.303Z,73.58
2023-02-14T14:42:41.155Z,73.91
2023-02-14T14:43:48.411Z,73.93
2023-02-14T14:45:01.991Z,73.99
2023-02-14T14:46:13.479Z,73.72
2023-02-14T14:47:24.578Z,73.91
2023-02-14T14:48:53.544Z,73.85
2023-02-14T14:50:17.010Z,73.97
2023-02-14T14:51:33.688Z,74.14
2023-02-14T14:52:47.306Z,74.13
2023-02-14T14:53:54.801Z,74.47
2023-02-14T14:55:01.109Z,74.78
2023-02-14T14:56:05.512Z,74.72
2023-02-14T14:57:18.431Z,74.48
2023-02-14T14:58:41.404Z,74.09
2023-02-14T14:59:45.875Z,74.38
2023-02-14T15:00:56.373Z,74.10
2023-02-14T15:02:00.282Z,74.34
2023-02-14T15:03:07.629Z,74.44
2023-02-14T15:04:27.306Z,74.56
2023-02-14T15:05:47.112Z,74.74
2023-02-14T15:06:52.089Z,74.58
2023-02-14T15:07:57.992Z,74.51
2023-02-14T15:09:35.097Z,74.42
2023-02-14T15:10:39.789Z,74.64
2023-02-14T15:12:05.868Z,74.78
2023-02-14T15:13:34.149Z,74.96
2023-02-14T15:14:44.842Z,74.83
2023-02-14T15:15:51.815Z,74.55
2023-02-14T15:17:18.667Z,74.99
2023-02-14T15:18:23.328Z,74.70
2023-02-14T15:19:44.277Z,75.13
2023-02-14T15:20:53.227Z,75.07
2023-02-14T15:21:58.356Z,74.79
2023-02-14T15:23:03.205Z,75.23
2023-02-14T15:24:18.229Z,75.03
2023-02-14T15:25:38.080Z,75.13
2023-02-14T15:26:45.810Z,75.59
2023-02-14T15:27:51.962Z,75.35
2023-02-14T15:29:05.459Z,74.92
2023-02-14T15:30:31.010Z,74.60
2023-02-14T15:31:42.197Z,74.84
2023-02-14T15:32:50.748Z,74.83
2023-02-14T15:33:54.597Z,75.08
2023-02-14T15:35:02.727Z,75.13
2023-02-14T15:36:29.323Z,75.21